createdAt,value
2023-03-02T00:01:10.768Z,39.53
2023-03-02T00:03:40.998Z,38.97
2023-03-02T00:06:09.221Z,39.38
2023-03-02T00:08:38.083Z,39.29
2023-03-02T00:11:04.866Z,39.36
2023-03-02T00:13:51.395Z,39.39
2023-03-02T00:16:18.088Z,39.23
2023-03-02T00:18:44.922Z,41.12
2023-03-02T00:21:11.485Z,39.85
2023-03-02T00:23:38.237Z,40.42
2023-03-02T00:26:06.156Z,39.75
2023-03-02T00:28:33.988Z,39.80
2023-03-02T00:31:04.548Z,39.96
2023-03-02T00:33:32.325Z,40.71
2023-03-02T00:35:58.878Z,39.59
2023-03-02T00:38:25.392Z,39.85
2023-03-02T00:40:51.874Z,40.57
2023-03-02T00:43:18.343Z,39.59
2023-03-02T00:45:45.145Z,39.86
2023-03-02T00:48:11.633Z,40.40
2023-03-02T00:50:38.279Z,41.34
2023-03-02T00:53:04.916Z,40.51
2023-03-02T00:55:31.422Z,41.62
2023-03-02T00:57:57.898Z,40.55
2023-03-02T01:00:24.672Z,41.38
2023-03-02T01:02:51.211Z,40.59
2023-03-02T01:05:17.885Z,40.76
2023-03-02T01:07:44.432Z,40.50
2023-03-02T01:10:11.613Z,41.46
2023-03-02T01:12:38.355Z,40.75
2023-03-02T01:15:06.449Z,40.51
2023-03-02T01:21:20.365Z,40.45
2023-03-02T01:23:46.885Z,40.67
2023-03-02T01:26:13.524Z,40.49
2023-03-02T01:28:40.056Z,41.18
2023-03-02T01:31:06.600Z,40.74
2023-03-02T01:33:33.138Z,41.71
2023-03-02T01:35:59.801Z,41.22
2023-03-02T01:38:26.583Z,40.13
2023-03-02T01:40:53.152Z,40.38
2023-03-02T01:43:19.821Z,41.01
2023-03-02T01:46:06.956Z,40.57
2023-03-02T01:48:42.702Z,40.71
2023-03-02T01:51:16.197Z,41.88
2023-03-02T01:53:47.986Z,41.29
2023-03-02T01:56:21.463Z,40.76
2023-03-02T01:58:54.072Z,41.41
2023-03-02T02:01:21.890Z,40.02
2023-03-02T02:03:51.072Z,40.05
2023-03-02T02:06:24.105Z,41.14
2023-03-02T02:08:54.407Z,40.49
2023-03-02T02:11:20.959Z,40.05
2023-03-02T02:13:47.954Z,39.59
2023-03-02T02:16:14.534Z,39.96
2023-03-02T02:18:44.295Z,40.34
2023-03-02T02:21:11.622Z,39.82
2023-03-02T02:24:23.037Z,40.11
2023-03-02T02:26:52.911Z,39.73
2023-03-02T02:29:32.215Z,39.64
2023-03-02T02:32:15.775Z,40.17
2023-03-02T02:34:47.358Z,39.61
2023-03-02T02:37:25.854Z,39.24
2023-03-02T02:39:52.536Z,38.70
2023-03-02T02:42:34.026Z,38.69
2023-03-02T02:45:06.696Z,39.34
2023-03-02T02:47:34.094Z,39.13
2023-03-02T02:50:01.147Z,39.12
2023-03-02T02:52:29.383Z,39.74
2023-03-02T02:54:58.308Z,39.06
2023-03-02T02:57:29.754Z,38.66
2023-03-02T03:00:00.233Z,40.02
2023-03-02T03:02:32.973Z,38.92
2023-03-02T03:04:59.506Z,39.04
2023-03-02T03:07:26.106Z,40.34
2023-03-02T03:10:24.544Z,40.05
2023-03-02T03:12:51.639Z,39.91
2023-03-02T03:15:18.836Z,39.72
2023-03-02T03:17:54.178Z,40.81
2023-03-02T03:20:22.643Z,38.80
2023-03-02T03:22:49.140Z,40.39
2023-03-02T03:25:15.728Z,40.56
2023-03-02T03:27:42.986Z,41.06
2023-03-02T03:30:14.700Z,41.21
2023-03-02T03:32:41.524Z,40.45
2023-03-02T03:35:08.897Z,40.62
2023-03-02T03:37:36.478Z,41.12
2023-03-02T03:40:03.313Z,40.30
2023-03-02T03:42:29.808Z,39.74
2023-03-02T03:44:56.354Z,40.78
2023-03-02T03:47:22.894Z,40.82
2023-03-02T03:49:49.395Z,41.21
2023-03-02T03:52:15.909Z,41.47
2023-03-02T03:54:42.413Z,41.98
2023-03-02T03:57:08.892Z,40.70
2023-03-02T03:59:35.358Z,41.62
2023-03-02T04:02:02.443Z,42.23
2023-03-02T04:04:33.917Z,42.79
2023-03-02T04:07:00.773Z,42.85
2023-03-02T04:09:27.539Z,42.94
2023-03-02T04:11:56.983Z,42.50
2023-03-02T04:14:24.799Z,41.40
2023-03-02T04:16:52.106Z,41.96
2023-03-02T04:19:18.944Z,41.60
2023-03-02T04:21:49.106Z,41.84
2023-03-02T04:24:17.484Z,42.90
2023-03-02T04:26:45.684Z,41.71
2023-03-02T04:29:13.756Z,42.21
2023-03-02T04:31:40.916Z,42.05
2023-03-02T04:34:08.638Z,42.29
2023-03-02T04:36:39.073Z,41.96
2023-03-02T04:39:07.085Z,42.36
2023-03-02T04:41:34.150Z,42.23
2023-03-02T04:44:00.645Z,41.64
2023-03-02T04:46:28.185Z,42.24
2023-03-02T04:48:55.305Z,41.46
2023-03-02T04:51:29.528Z,41.09
2023-03-02T04:53:59.741Z,40.73
2023-03-02T04:56:26.891Z,40.92
2023-03-02T04:58:53.444Z,40.83
2023-03-02T05:01:20.900Z,41.85
2023-03-02T05:03:48.337Z,41.32
2023-03-02T05:06:15.604Z,43.38
2023-03-02T05:08:42.936Z,42.57
2023-03-02T05:11:12.936Z,43.20
2023-03-02T05:13:39.423Z,42.51
2023-03-02T05:16:06.155Z,43.92
2023-03-02T05:18:32.733Z,43.33
2023-03-02T05:20:59.203Z,43.88
2023-03-02T05:23:26.053Z,43.31
2023-03-02T05:25:56.194Z,43.09
2023-03-02T05:28:25.288Z,42.14
2023-03-02T05:30:52.670Z,41.98
2023-03-02T05:33:20.189Z,42.58
2023-03-02T05:35:47.336Z,43.36
2023-03-02T05:38:14.778Z,42.75
2023-03-02T05:40:41.549Z,42.23
2023-03-02T05:43:08.833Z,43.37
2023-03-02T05:45:38.272Z,42.88
2023-03-02T05:48:05.750Z,42.28
2023-03-02T05:50:32.285Z,41.10
2023-03-02T05:52:59.177Z,43.12
2023-03-02T05:55:26.503Z,43.64
2023-03-02T05:57:52.983Z,43.21
2023-03-02T06:00:20.702Z,42.20
2023-03-02T06:02:47.784Z,42.70
2023-03-02T06:05:17.878Z,43.32
2023-03-02T06:07:45.032Z,43.41
2023-03-02T06:10:12.942Z,42.44
2023-03-02T06:12:40.092Z,42.22
2023-03-02T06:15:07.824Z,42.24
2023-03-02T06:17:34.686Z,42.61
2023-03-02T06:20:01.286Z,41.74
2023-03-02T06:22:27.863Z,42.05
2023-03-02T06:24:54.524Z,41.90
2023-03-02T06:27:21.370Z,40.96
2023-03-02T06:29:47.859Z,42.16
2023-03-02T06:32:14.455Z,41.48
2023-03-02T06:34:41.052Z,42.83
2023-03-02T06:37:07.567Z,41.99
2023-03-02T06:39:34.102Z,42.14
2023-03-02T06:42:03.504Z,41.99
2023-03-02T06:45:08.953Z,42.23
2023-03-02T06:47:39.152Z,41.69
2023-03-02T06:50:06.316Z,41.15
2023-03-02T06:52:33.268Z,41.38
2023-03-02T06:55:03.018Z,41.59
2023-03-02T06:57:29.641Z,41.99
2023-03-02T06:59:56.110Z,42.48
2023-03-02T07:02:22.606Z,43.25
2023-03-02T07:04:49.124Z,43.43
2023-03-02T07:07:15.615Z,42.87
2023-03-02T07:09:42.258Z,42.84
2023-03-02T07:12:08.781Z,42.05
2023-03-02T07:14:35.849Z,40.80
2023-03-02T07:17:05.171Z,41.32
2023-03-02T07:19:31.694Z,42.32
2023-03-02T07:21:58.168Z,42.35
2023-03-02T07:24:24.682Z,42.09
2023-03-02T07:26:51.260Z,42.69
2023-03-02T07:29:17.723Z,42.65
2023-03-02T07:31:44.249Z,41.55
2023-03-02T07:34:10.760Z,41.37
2023-03-02T07:36:37.242Z,42.20
2023-03-02T07:39:04.227Z,42.81
2023-03-02T07:41:31.150Z,43.23
2023-03-02T07:43:57.909Z,41.79
2023-03-02T07:46:24.463Z,42.64
2023-03-02T07:48:51.017Z,42.30
2023-03-02T07:51:17.532Z,41.50
2023-03-02T07:53:44.179Z,42.18
2023-03-02T07:56:11.660Z,41.48
2023-03-02T07:58:38.407Z,42.44
2023-03-02T08:01:05.110Z,41.67
2023-03-02T08:03:31.630Z,41.99
2023-03-02T08:05:58.128Z,42.76
2023-03-02T08:08:24.758Z,41.72
2023-03-02T08:10:51.377Z,42.08
2023-03-02T08:13:17.871Z,41.88
2023-03-02T08:15:44.410Z,41.22
2023-03-02T08:18:10.898Z,42.88
2023-03-02T08:20:37.513Z,42.64
2023-03-02T08:23:04.060Z,42.92
2023-03-02T08:25:30.573Z,41.95
2023-03-02T08:27:57.045Z,43.93
2023-03-02T08:30:23.605Z,42.78
2023-03-02T08:32:50.176Z,43.05
2023-03-02T08:35:16.740Z,42.95
2023-03-02T08:37:43.258Z,43.38
2023-03-02T08:40:10.353Z,43.15
2023-03-02T08:42:36.926Z,42.82
2023-03-02T08:45:03.675Z,42.89
2023-03-02T08:47:30.160Z,42.83
2023-03-02T08:49:56.641Z,42.83
2023-03-02T08:52:23.128Z,42.65
2023-03-02T08:54:49.648Z,42.97
2023-03-02T08:57:16.229Z,42.73
2023-03-02T08:59:42.928Z,43.78
2023-03-02T09:02:11.844Z,44.15
2023-03-02T09:04:38.481Z,44.09
2023-03-02T09:07:05.044Z,43.48
2023-03-02T09:09:31.580Z,43.54
2023-03-02T09:11:58.106Z,43.00
2023-03-02T09:14:24.617Z,44.84
2023-03-02T09:16:51.178Z,43.49
2023-03-02T09:19:17.944Z,43.59
2023-03-02T09:21:44.705Z,43.75
2023-03-02T09:24:11.366Z,43.58
2023-03-02T09:26:37.842Z,43.51
2023-03-02T09:29:04.892Z,43.48
2023-03-02T09:31:31.484Z,43.72
2023-03-02T09:33:58.165Z,43.82
2023-03-02T09:36:26.404Z,42.97
2023-03-02T09:38:53.480Z,43.76
2023-03-02T09:41:19.983Z,43.78
2023-03-02T09:44:08.307Z,44.54
2023-03-02T09:46:47.633Z,44.07
2023-03-02T09:49:45.101Z,43.80
2023-03-02T09:52:30.958Z,43.42
2023-03-02T09:55:11.176Z,43.10
2023-03-02T09:57:39.091Z,42.64
2023-03-02T10:00:24.416Z,43.28
2023-03-02T10:02:53.943Z,43.10
2023-03-02T10:05:24.933Z,42.97
2023-03-02T10:07:51.620Z,43.18
2023-03-02T10:10:18.066Z,43.37
2023-03-02T10:13:08.815Z,43.09
2023-03-02T10:15:48.020Z,43.22
2023-03-02T10:18:23.934Z,43.38
2023-03-02T10:21:01.827Z,42.92
2023-03-02T10:23:51.313Z,42.64
2023-03-02T10:26:34.513Z,43.50
2023-03-02T10:29:30.183Z,43.78
2023-03-02T10:32:24.236Z,42.82
2023-03-02T10:34:53.079Z,43.50
2023-03-02T10:37:28.212Z,43.10
2023-03-02T10:39:55.806Z,42.17
2023-03-02T10:42:29.772Z,43.26
2023-03-02T10:45:21.805Z,43.09
2023-03-02T10:47:48.338Z,42.48
2023-03-02T10:50:22.376Z,42.48
2023-03-02T10:52:59.533Z,44.52
2023-03-02T10:55:27.203Z,42.83
2023-03-02T10:58:02.362Z,43.41
2023-03-02T11:00:31.462Z,43.07
2023-03-02T11:03:19.443Z,42.04
2023-03-02T11:05:45.921Z,42.57
2023-03-02T11:08:27.832Z,42.82
2023-03-02T11:11:03.818Z,43.12
2023-03-02T11:13:36.218Z,43.08
2023-03-02T11:16:06.645Z,41.83
2023-03-02T11:19:05.061Z,42.99
2023-03-02T11:21:38.977Z,43.29
2023-03-02T11:24:20.487Z,41.85
2023-03-02T11:26:52.707Z,42.49
2023-03-02T11:29:25.001Z,44.03
2023-03-02T11:31:58.737Z,44.22
2023-03-02T11:34:48.905Z,44.17
2023-03-02T11:37:21.238Z,41.89
2023-03-02T11:39:55.161Z,42.79
2023-03-02T11:42:31.005Z,44.03
2023-03-02T11:45:02.823Z,43.62
2023-03-02T11:47:32.301Z,43.81
2023-03-02T11:50:04.440Z,45.83
2023-03-02T11:52:37.656Z,44.09
2023-03-02T11:55:13.203Z,43.67
2023-03-02T11:57:48.779Z,43.84
2023-03-02T12:00:26.201Z,43.67
2023-03-02T12:03:07.309Z,42.44
2023-03-02T12:05:38.643Z,43.47
2023-03-02T12:08:20.372Z,44.11
2023-03-02T12:10:58.929Z,44.43
2023-03-02T12:13:57.442Z,43.22
2023-03-02T12:16:43.550Z,43.83
2023-03-02T12:19:12.681Z,44.29
2023-03-02T12:21:41.755Z,43.12
2023-03-02T12:24:25.303Z,42.81
2023-03-02T12:27:10.225Z,43.05
2023-03-02T12:29:45.869Z,43.25
2023-03-02T12:32:18.274Z,42.50
2023-03-02T12:35:02.794Z,43.20
2023-03-02T12:37:49.621Z,43.12
2023-03-02T12:40:39.109Z,42.75
2023-03-02T12:43:27.242Z,43.37
2023-03-02T12:46:10.405Z,44.02
2023-03-02T12:48:47.522Z,45.63
2023-03-02T12:51:21.566Z,44.98
2023-03-02T12:53:48.989Z,42.91
2023-03-02T12:56:26.466Z,42.76
2023-03-02T12:58:54.286Z,42.62
2023-03-02T13:01:23.845Z,43.30
2023-03-02T13:03:51.265Z,43.53
2023-03-02T13:06:20.273Z,42.94
2023-03-02T13:08:52.557Z,43.21
2023-03-02T13:11:33.030Z,44.41
2023-03-02T13:14:01.619Z,44.55
2023-03-02T13:16:31.905Z,43.61
2023-03-02T13:19:02.201Z,43.87
2023-03-02T13:21:36.290Z,44.04
2023-03-02T13:24:02.885Z,44.48
2023-03-02T13:26:37.182Z,43.24
2023-03-02T13:29:06.927Z,42.93
2023-03-02T13:31:34.813Z,42.84
2023-03-02T13:34:01.512Z,43.39
2023-03-02T13:36:36.019Z,42.90
2023-03-02T13:39:07.024Z,44.06
2023-03-02T13:41:36.214Z,42.59
2023-03-02T13:44:19.532Z,42.64
2023-03-02T13:46:47.369Z,43.03
2023-03-02T13:49:24.638Z,43.68
2023-03-02T13:52:01.201Z,42.71
2023-03-02T13:54:32.869Z,42.99
2023-03-02T13:57:03.030Z,43.41
2023-03-02T13:59:30.234Z,42.47
2023-03-02T14:01:56.767Z,42.84
2023-03-02T14:04:23.934Z,42.45
2023-03-02T14:06:52.873Z,41.32
2023-03-02T14:09:20.699Z,41.61
2023-03-02T14:11:52.557Z,42.51
2023-03-02T14:14:23.027Z,41.78
2023-03-02T14:16:50.815Z,41.97
2023-03-02T14:19:18.009Z,41.24
2023-03-02T14:21:45.806Z,40.67
2023-03-02T14:24:12.296Z,41.01
2023-03-02T14:26:44.849Z,41.75
2023-03-02T14:29:29.753Z,41.60
2023-03-02T14:31:59.227Z,41.79
2023-03-02T14:34:26.327Z,41.59
2023-03-02T14:36:58.846Z,41.81
2023-03-02T14:39:40.690Z,41.21
2023-03-02T14:42:17.022Z,41.29
2023-03-02T14:44:45.401Z,41.04
2023-03-02T14:47:12.518Z,41.34
2023-03-02T14:49:39.404Z,41.17
2023-03-02T14:52:46.690Z,41.42
2023-03-02T14:55:24.402Z,41.66
2023-03-02T14:58:05.020Z,41.24
2023-03-02T15:00:31.798Z,41.01
2023-03-02T15:02:58.787Z,40.80
2023-03-02T15:05:25.408Z,39.77
2023-03-02T15:07:51.929Z,40.24
2023-03-02T15:10:21.023Z,40.18
2023-03-02T15:12:47.640Z,39.32
2023-03-02T15:15:14.150Z,40.28
2023-03-02T15:17:41.272Z,40.22
2023-03-02T15:20:13.147Z,39.93
2023-03-02T15:22:39.626Z,40.44
2023-03-02T15:25:06.404Z,40.40
2023-03-02T15:27:32.969Z,40.29
2023-03-02T15:29:59.569Z,40.05
2023-03-02T15:32:26.161Z,39.89
2023-03-02T15:34:52.625Z,39.69
2023-03-02T15:37:19.221Z,39.56
2023-03-02T15:39:52.880Z,40.20
2023-03-02T15:42:19.654Z,38.73
2023-03-02T15:44:48.744Z,38.53
2023-03-02T15:47:15.299Z,40.35
2023-03-02T15:49:41.765Z,41.08
2023-03-02T15:52:09.774Z,40.50
2023-03-02T15:54:36.260Z,39.67
2023-03-02T15:57:02.842Z,40.24
2023-03-02T15:59:31.263Z,40.25
2023-03-02T16:01:58.499Z,39.84
2023-03-02T16:04:26.633Z,39.46
2023-03-02T16:06:53.164Z,39.75
2023-03-02T16:09:19.696Z,38.86
2023-03-02T16:11:48.878Z,39.24
2023-03-02T16:14:15.409Z,38.99
2023-03-02T16:16:43.464Z,39.44
2023-03-02T16:19:12.869Z,38.99
2023-03-02T16:21:39.488Z,39.91
2023-03-02T16:24:07.234Z,41.18
2023-03-02T16:26:36.706Z,40.56
2023-03-02T16:29:05.777Z,41.02
2023-03-02T16:31:32.355Z,41.43
2023-03-02T16:33:59.209Z,42.08
2023-03-02T16:36:27.403Z,42.08
2023-03-02T16:38:53.877Z,41.97
2023-03-02T16:41:23.285Z,41.93
2023-03-02T16:43:58.850Z,41.51
2023-03-02T16:46:28.686Z,41.46
2023-03-02T16:48:56.412Z,44.30
2023-03-02T16:51:22.909Z,43.13
2023-03-02T16:53:50.166Z,42.83
2023-03-02T16:56:16.710Z,43.49
2023-03-02T16:58:43.616Z,43.76
2023-03-02T17:01:13.677Z,43.79
2023-03-02T17:03:41.021Z,44.72
2023-03-02T17:06:10.913Z,43.94
2023-03-02T17:08:37.838Z,42.20
2023-03-02T17:11:04.515Z,43.71
2023-03-02T17:13:31.027Z,42.79
2023-03-02T17:15:58.498Z,43.76
2023-03-02T17:18:26.328Z,43.78
2023-03-02T17:20:55.027Z,44.45
2023-03-02T17:23:22.034Z,44.87
2023-03-02T17:25:48.599Z,45.03
2023-03-02T17:28:15.494Z,44.15
2023-03-02T17:30:43.260Z,45.31
2023-03-02T17:33:10.364Z,45.98
2023-03-02T17:35:37.473Z,44.69
2023-03-02T17:38:04.751Z,45.13
2023-03-02T17:40:32.193Z,45.84
2023-03-02T17:42:58.735Z,45.91
2023-03-02T17:45:27.543Z,44.77
2023-03-02T17:47:55.160Z,44.59
2023-03-02T17:50:23.187Z,44.93
2023-03-02T17:52:49.772Z,43.64
2023-03-02T17:55:16.555Z,44.25
2023-03-02T17:57:43.086Z,46.78
2023-03-02T18:00:14.918Z,45.42
2023-03-02T18:02:41.416Z,44.92
2023-03-02T18:05:08.649Z,44.93
2023-03-02T18:07:38.707Z,44.94
2023-03-02T18:10:06.646Z,45.72
2023-03-02T18:12:34.071Z,46.37
2023-03-02T18:15:00.554Z,46.30
2023-03-02T18:17:27.077Z,46.62
2023-03-02T18:19:53.563Z,46.78
2023-03-02T18:22:20.050Z,47.10
2023-03-02T18:24:46.525Z,47.13
2023-03-02T18:27:13.143Z,45.29
2023-03-02T18:29:39.649Z,45.04
2023-03-02T18:32:06.267Z,45.85
2023-03-02T18:34:32.794Z,46.45
2023-03-02T18:36:59.416Z,46.48
2023-03-02T18:39:25.948Z,45.42
2023-03-02T18:41:52.455Z,44.41
2023-03-02T18:44:19.297Z,45.11
2023-03-02T18:46:46.080Z,47.33
2023-03-02T18:49:12.726Z,48.11
2023-03-02T18:51:40.098Z,48.52
2023-03-02T18:54:06.589Z,50.01
2023-03-02T18:56:33.117Z,50.17
2023-03-02T18:58:59.605Z,47.70
2023-03-02T19:01:31.390Z,47.59
2023-03-02T19:03:57.990Z,48.37
2023-03-02T19:06:24.961Z,48.62
2023-03-02T19:08:51.570Z,50.06
2023-03-02T19:11:18.084Z,50.25
2023-03-02T19:13:44.655Z,49.81
2023-03-02T19:16:11.178Z,49.11
2023-03-02T19:18:37.810Z,50.07
2023-03-02T19:21:05.185Z,49.17
2023-03-02T19:23:32.500Z,46.79
2023-03-02T19:26:00.278Z,45.52
2023-03-02T19:28:26.932Z,44.90
2023-03-02T19:30:53.468Z,45.27
2023-03-02T19:33:20.017Z,44.55
2023-03-02T19:35:46.632Z,44.03
2023-03-02T19:38:13.140Z,43.87
2023-03-02T19:40:40.129Z,43.89
2023-03-02T19:43:06.702Z,44.59
2023-03-02T19:45:33.880Z,44.25
2023-03-02T19:48:00.711Z,43.97
2023-03-02T19:50:28.141Z,44.30
2023-03-02T19:52:56.049Z,43.95
2023-03-02T19:55:24.013Z,43.95
2023-03-02T19:57:51.770Z,44.34
2023-03-02T20:00:18.925Z,43.55
2023-03-02T20:02:47.028Z,44.52
2023-03-02T20:05:14.727Z,46.61
2023-03-02T20:07:42.023Z,46.80
2023-03-02T20:10:10.375Z,46.93
2023-03-02T20:12:37.313Z,46.90
2023-03-02T20:15:05.914Z,46.72
2023-03-02T20:17:32.624Z,47.69
2023-03-02T20:19:59.134Z,48.35
2023-03-02T20:22:25.622Z,48.46
2023-03-02T20:24:52.250Z,48.59
2023-03-02T20:27:18.833Z,48.51
2023-03-02T20:29:45.684Z,49.34
2023-03-02T20:32:13.180Z,50.86
2023-03-02T20:34:41.428Z,50.82
2023-03-02T20:37:08.152Z,49.49
2023-03-02T20:39:38.724Z,48.82
2023-03-02T20:42:06.888Z,49.39
2023-03-02T20:44:34.882Z,51.73
2023-03-02T20:47:06.356Z,50.16
2023-03-02T20:49:33.117Z,53.19
2023-03-02T20:52:00.838Z,53.49
2023-03-02T20:54:31.722Z,50.29
2023-03-02T20:56:58.997Z,51.96
2023-03-02T20:59:26.936Z,53.40
2023-03-02T21:01:53.575Z,54.48
2023-03-02T21:04:22.009Z,54.09
2023-03-02T21:06:48.699Z,53.41
2023-03-02T21:09:15.963Z,53.14
2023-03-02T21:11:42.471Z,52.19
2023-03-02T21:14:09.094Z,52.35
2023-03-02T21:16:38.837Z,51.43
2023-03-02T21:19:09.456Z,50.41
2023-03-02T21:21:41.725Z,50.26
2023-03-02T21:24:11.227Z,47.32
2023-03-02T21:26:38.091Z,49.63
2023-03-02T21:29:05.374Z,47.86
2023-03-02T21:31:32.185Z,47.80
2023-03-02T21:33:58.766Z,48.41
2023-03-02T21:36:25.707Z,48.37
2023-03-02T21:38:52.661Z,47.28
2023-03-02T21:41:19.386Z,47.77
2023-03-02T21:43:46.074Z,48.43
2023-03-02T21:46:15.065Z,47.54
2023-03-02T21:48:41.965Z,49.32
2023-03-02T21:51:11.260Z,49.18
2023-03-02T21:53:37.812Z,49.16
2023-03-02T21:56:04.639Z,48.36
2023-03-02T21:58:31.141Z,47.85
2023-03-02T22:00:57.648Z,50.32
2023-03-02T22:03:33.263Z,50.31
2023-03-02T22:05:59.728Z,50.27
2023-03-02T22:08:26.219Z,50.88
2023-03-02T22:10:52.685Z,49.09
2023-03-02T22:13:29.983Z,49.71
2023-03-02T22:16:10.864Z,49.51
2023-03-02T22:18:37.493Z,49.87
2023-03-02T22:21:26.356Z,49.15
2023-03-02T22:24:08.088Z,50.11
2023-03-02T22:26:42.182Z,50.00
2023-03-02T22:29:25.314Z,50.70
2023-03-02T22:31:55.256Z,49.87
2023-03-02T22:34:28.280Z,49.71
2023-03-02T22:36:58.751Z,49.50
2023-03-02T22:39:32.481Z,50.22
2023-03-02T22:42:06.437Z,50.91
2023-03-02T22:44:32.956Z,51.39
2023-03-02T22:47:00.367Z,50.10
2023-03-02T22:49:28.080Z,48.31
2023-03-02T22:51:57.651Z,48.67
2023-03-02T22:54:36.387Z,48.37
2023-03-02T22:57:03.532Z,49.26
2023-03-02T22:59:36.528Z,48.66
2023-03-02T23:02:15.168Z,48.69
2023-03-02T23:04:47.580Z,49.27
2023-03-02T23:07:18.823Z,48.54
2023-03-02T23:09:46.170Z,48.33
2023-03-02T23:12:27.971Z,48.33
2023-03-02T23:14:57.044Z,47.35
2023-03-02T23:17:37.831Z,48.72
2023-03-02T23:20:12.513Z,48.87
2023-03-02T23:22:39.683Z,47.88
2023-03-02T23:25:07.478Z,48.24
2023-03-02T23:27:33.978Z,48.25
2023-03-02T23:30:00.565Z,48.32
2023-03-02T23:32:27.145Z,49.34
2023-03-02T23:34:53.678Z,48.25
2023-03-02T23:37:20.147Z,49.05
2023-03-02T23:39:46.669Z,49.96
2023-03-02T23:42:13.278Z,49.75
2023-03-02T23:44:39.747Z,51.31
2023-03-02T23:47:06.258Z,50.26
2023-03-02T23:49:32.729Z,51.72
2023-03-02T23:51:59.236Z,51.71
2023-03-02T23:54:25.792Z,53.22
2023-03-02T23:56:52.256Z,50.89
2023-03-02T23:59:18.854Z,52.22
